Time;durP1;ratioP1;P1;durP2;ratioP2;P2;SDS_P1;SDS_P2;PMS_P1;PMS_P2;Temp;Humidity;BMP_temperature;BMP_pressure;BME280_temperature;BME280_humidity;BME280_pressure;Samples;Min_cycle;Max_cycle;Signal;HPM_P1;HPM_P2
2022/01/16 00:01:33;;;;;;;31.63;15.73;;;;;;;-3.63;100.00;95843.09;5068665;28;20044;-49
2022/01/16 00:04:06;;;;;;;29.55;15.35;;;;;;;-3.72;100.00;95853.03;5066171;28;21099;-53
2022/01/16 00:06:34;;;;;;;39.63;14.20;;;;;;;-3.81;100.00;95830.84;5068285;28;20513;-50
2022/01/16 00:09:02;;;;;;;33.28;13.13;;;;;;;-3.77;100.00;95831.41;5071980;28;20048;-49
2022/01/16 00:11:29;;;;;;;31.55;13.32;;;;;;;-3.85;100.00;95843.00;5067750;28;20430;-51
2022/01/16 00:13:56;;;;;;;28.65;14.35;;;;;;;-4.00;100.00;95828.06;5066290;28;20521;-49
2022/01/16 00:16:24;;;;;;;30.40;14.93;;;;;;;-3.88;100.00;95847.50;5064045;28;20136;-52
2022/01/16 00:18:52;;;;;;;53.90;20.48;;;;;;;-3.93;100.00;95849.59;5063838;28;20429;-53
2022/01/16 00:21:22;;;;;;;41.85;16.10;;;;;;;-3.93;100.00;95869.94;5069346;28;20052;-52
2022/01/16 00:23:49;;;;;;;22.00;12.82;;;;;;;-3.97;100.00;95883.84;5069549;28;20048;-50
2022/01/16 00:26:18;;;;;;;26.50;13.25;;;;;;;-4.06;100.00;95903.94;5063027;28;20048;-50
2022/01/16 00:28:45;;;;;;;42.63;18.13;;;;;;;-3.98;100.00;95907.66;5063296;28;20037;-48
2022/01/16 00:31:16;;;;;;;28.75;13.63;;;;;;;-4.05;100.00;95943.75;5063846;28;20525;-53
2022/01/16 00:33:44;;;;;;;29.80;15.90;;;;;;;-4.17;100.00;95954.03;5072366;28;20040;-51
2022/01/16 00:36:17;;;;;;;23.55;12.40;;;;;;;-4.15;100.00;95874.09;5063294;28;20055;-52
2022/01/16 00:38:47;;;;;;;23.45;13.52;;;;;;;-4.27;100.00;95852.94;5064048;28;20049;-52
2022/01/16 00:41:17;;;;;;;22.92;11.20;;;;;;;-4.34;100.00;95906.91;5064856;28;20044;-50
2022/01/16 00:43:45;;;;;;;27.73;12.00;;;;;;;-4.39;100.00;95838.59;5062577;28;20421;-51
2022/01/16 00:46:12;;;;;;;19.73;9.27;;;;;;;-4.51;100.00;95758.94;5065918;28;20090;-54
2022/01/16 00:48:39;;;;;;;23.90;12.57;;;;;;;-4.63;100.00;95800.50;5062343;28;20136;-49
2022/01/16 00:51:06;;;;;;;20.17;9.27;;;;;;;-4.69;100.00;95760.31;5067292;28;21599;-50
2022/01/16 00:53:33;;;;;;;20.48;10.98;;;;;;;-4.68;100.00;95711.06;5066018;28;20048;-53
2022/01/16 00:56:00;;;;;;;19.60;10.43;;;;;;;-4.84;100.00;95747.81;5067638;28;20040;-48
2022/01/16 00:58:27;;;;;;;17.65;10.15;;;;;;;-4.87;100.00;95722.63;5066605;28;20041;-50
2022/01/16 01:00:54;;;;;;;23.58;10.55;;;;;;;-4.90;100.00;95733.00;5065986;28;20059;-48
2022/01/16 01:03:21;;;;;;;34.40;12.45;;;;;;;-4.92;100.00;95783.13;5060226;28;20114;-49
2022/01/16 01:05:48;;;;;;;23.38;10.68;;;;;;;-4.95;100.00;95831.66;5066071;28;20514;-50
2022/01/16 01:08:15;;;;;;;25.73;9.13;;;;;;;-5.12;100.00;95819.34;5062440;28;20124;-50
2022/01/16 01:10:46;;;;;;;26.48;12.73;;;;;;;-5.16;100.00;95792.53;5064767;28;20044;-49
2022/01/16 01:13:23;;;;;;;17.05;9.40;;;;;;;-5.21;100.00;95816.53;5061733;28;20399;-49
2022/01/16 01:15:58;;;;;;;20.63;8.75;;;;;;;-5.23;100.00;95836.16;5071502;28;20040;-49
2022/01/16 01:18:25;;;;;;;25.77;11.35;;;;;;;-5.27;100.00;95801.75;5062451;28;20131;-54
2022/01/16 01:20:53;;;;;;;21.92;10.93;;;;;;;-5.19;100.00;95824.03;5064258;28;20045;-52
2022/01/16 01:23:20;;;;;;;30.45;12.80;;;;;;;-5.27;100.00;95822.06;5063456;28;20041;-50
2022/01/16 01:25:47;;;;;;;26.67;10.38;;;;;;;-5.24;100.00;95805.78;5062889;28;20055;-50
2022/01/16 01:28:14;;;;;;;18.67;10.90;;;;;;;-5.31;100.00;95828.28;5062420;28;20115;-49
2022/01/16 01:30:44;;;;;;;25.02;10.65;;;;;;;-5.38;100.00;95820.28;5060860;28;20056;-50
2022/01/16 01:33:15;;;;;;;17.23;10.52;;;;;;;-5.43;100.00;95804.56;5062980;28;20060;-48
2022/01/16 01:35:43;;;;;;;19.83;11.07;;;;;;;-5.46;100.00;95806.50;5064674;28;20051;-49
2022/01/16 01:38:11;;;;;;;28.77;13.48;;;;;;;-5.46;100.00;95836.97;5067769;28;20421;-51
2022/01/16 01:40:39;;;;;;;30.63;13.27;;;;;;;-5.49;100.00;95837.16;5063834;28;21816;-50
2022/01/16 01:51:13;;;;;;;25.23;10.90;;;;;;;-5.67;100.00;95890.84;5062658;28;20055;-51
2022/01/16 01:53:41;;;;;;;16.30;9.23;;;;;;;-5.72;100.00;95872.59;5062830;28;20124;-50
2022/01/16 01:56:11;;;;;;;23.00;12.13;;;;;;;-5.79;100.00;95856.16;5063303;28;20134;-50
2022/01/16 01:58:39;;;;;;;16.77;9.70;;;;;;;-5.78;100.00;95867.91;5065632;28;20043;-49
2022/01/16 02:01:06;;;;;;;22.92;10.35;;;;;;;-5.85;100.00;95876.84;5065601;28;20429;-50
2022/01/16 02:03:42;;;;;;;18.80;8.52;;;;;;;-5.98;100.00;95849.84;5069808;28;20921;-50
2022/01/16 02:06:15;;;;;;;21.92;9.32;;;;;;;-5.95;100.00;95867.34;5068301;28;20045;-52
2022/01/16 02:08:43;;;;;;;18.90;10.15;;;;;;;-5.96;100.00;95880.97;5063812;28;20499;-51
2022/01/16 02:11:15;;;;;;;23.10;10.48;;;;;;;-5.97;100.00;95889.50;5067797;28;20036;-50
2022/01/16 02:13:52;;;;;;;18.48;8.55;;;;;;;-5.99;100.00;95886.25;5062816;28;20048;-50
2022/01/16 02:28:14;;;;;;;19.33;7.95;;;;;;;-6.42;100.00;95868.81;5065919;28;20043;-49
2022/01/16 02:36:14;;;;;;;13.13;7.63;;;;;;;-6.50;100.00;95850.75;5063488;28;20045;-49
2022/01/16 02:38:41;;;;;;;14.30;6.90;;;;;;;-6.60;100.00;95845.47;5061832;28;20041;-49
2022/01/16 02:41:08;;;;;;;14.30;5.95;;;;;;;-6.63;100.00;95839.81;5060766;28;20041;-50
2022/01/16 02:43:36;;;;;;;17.90;6.88;;;;;;;-6.70;100.00;95848.72;5068027;28;20123;-54
2022/01/16 02:48:45;;;;;;;9.38;4.70;;;;;;;-6.82;100.00;95856.22;5066125;28;20571;-50
2022/01/16 02:51:20;;;;;;;11.57;4.97;;;;;;;-6.80;100.00;95849.31;5066628;28;20036;-53
2022/01/16 02:53:48;;;;;;;14.10;6.70;;;;;;;-6.78;100.00;95856.81;5066591;28;20036;-53
2022/01/16 02:56:15;;;;;;;13.70;7.43;;;;;;;-6.75;100.00;95851.56;5078154;28;20040;-54
2022/01/16 02:58:43;;;;;;;13.88;7.18;;;;;;;-6.76;100.00;95845.66;5066273;28;20044;-49
2022/01/16 03:01:11;;;;;;;18.63;7.20;;;;;;;-6.80;100.00;95844.25;5069525;28;20052;-49
2022/01/16 03:03:39;;;;;;;12.23;5.32;;;;;;;-6.78;100.00;95842.44;5068279;28;20118;-49
2022/01/16 03:06:06;;;;;;;9.07;5.80;;;;;;;-6.83;100.00;95846.97;5067183;28;20123;-52
2022/01/16 03:08:33;;;;;;;18.38;7.65;;;;;;;-6.82;100.00;95850.34;5067591;28;20083;-51
2022/01/16 03:13:47;;;;;;;20.55;8.00;;;;;;;-6.78;100.00;95847.50;5071947;28;20761;-49
2022/01/16 03:16:20;;;;;;;10.43;5.68;;;;;;;-6.76;100.00;95852.47;5074739;28;20049;-49
2022/01/16 03:21:54;;;;;;;7.40;4.75;;;;;;;-6.67;100.00;95838.38;5065137;28;20040;-49
2022/01/16 03:24:25;;;;;;;12.02;6.57;;;;;;;-6.61;100.00;95846.41;5065149;28;20044;-49
2022/01/16 03:26:56;;;;;;;12.85;6.05;;;;;;;-6.48;100.00;95850.66;5064912;28;20048;-49
2022/01/16 03:29:24;;;;;;;5.55;4.28;;;;;;;-6.39;100.00;95848.34;5065001;28;20043;-48
2022/01/16 03:31:52;;;;;;;8.27;4.88;;;;;;;-6.33;100.00;95846.31;5070275;28;20031;-53
2022/01/16 03:34:19;;;;;;;10.27;6.10;;;;;;;-6.26;100.00;95862.75;5064865;28;20053;-50
2022/01/16 03:36:47;;;;;;;12.27;5.30;;;;;;;-6.17;100.00;95857.06;5064961;28;20036;-50
2022/01/16 03:39:14;;;;;;;9.43;4.75;;;;;;;-6.12;100.00;95849.97;5065054;28;20048;-49
2022/01/16 03:41:41;;;;;;;9.35;5.18;;;;;;;-5.97;100.00;95853.97;5067046;28;20040;-51
2022/01/16 03:44:08;;;;;;;10.52;6.32;;;;;;;-5.87;100.00;95849.06;5068711;28;20524;-50
2022/01/16 03:46:39;;;;;;;10.85;5.80;;;;;;;-5.70;100.00;95858.06;5065430;28;20075;-50
2022/01/16 03:49:12;;;;;;;6.70;4.65;;;;;;;-5.60;100.00;95861.59;5065776;28;20051;-50
2022/01/16 03:51:40;;;;;;;8.95;4.95;;;;;;;-5.49;100.00;95857.47;5066404;28;20039;-52
2022/01/16 03:54:09;;;;;;;14.57;4.95;;;;;;;-5.37;100.00;95866.78;5067487;28;20391;-52
2022/01/16 03:56:37;;;;;;;11.40;7.18;;;;;;;-5.26;100.00;95874.47;5066385;28;20633;-49
2022/01/16 03:59:05;;;;;;;10.75;5.75;;;;;;;-5.18;100.00;95866.31;5064295;28;20036;-51
2022/01/16 04:01:32;;;;;;;10.55;5.43;;;;;;;-5.08;100.00;95872.34;5074057;28;21047;-51
2022/01/16 04:04:00;;;;;;;8.57;5.13;;;;;;;-4.98;100.00;95877.59;5065580;28;20051;-49
2022/01/16 04:06:27;;;;;;;13.30;6.70;;;;;;;-4.89;100.00;95871.84;5071139;28;20047;-52
2022/01/16 04:08:55;;;;;;;11.88;6.35;;;;;;;-4.84;100.00;95869.81;5064687;28;20040;-52
2022/01/16 04:11:24;;;;;;;18.15;7.70;;;;;;;-4.66;100.00;95877.03;5064470;28;20573;-52
2022/01/16 04:13:53;;;;;;;15.10;7.88;;;;;;;-4.60;100.00;95881.66;5070883;28;20438;-47
2022/01/16 04:16:22;;;;;;;13.23;7.47;;;;;;;-4.72;100.00;95859.66;5065015;28;20422;-49
2022/01/16 04:18:51;;;;;;;16.92;6.97;;;;;;;-4.55;100.00;95884.69;5063600;28;20053;-50
2022/01/16 04:21:19;;;;;;;12.25;6.90;;;;;;;-4.56;100.00;95888.13;5066647;28;20054;-50
2022/01/16 04:23:47;;;;;;;13.95;7.32;;;;;;;-4.50;100.00;95895.31;5063788;28;20048;-51
2022/01/16 04:26:15;;;;;;;12.95;7.15;;;;;;;-4.53;100.00;95893.00;5064818;28;20049;-53
2022/01/16 04:28:43;;;;;;;18.52;8.50;;;;;;;-4.45;100.00;95900.91;5066269;28;20067;-51
2022/01/16 04:31:10;;;;;;;14.70;6.57;;;;;;;-4.37;100.00;95897.78;5063779;28;20040;-48
2022/01/16 04:33:37;;;;;;;16.27;7.00;;;;;;;-4.31;100.00;95907.50;5063893;28;20040;-54
2022/01/16 04:36:04;;;;;;;12.88;7.05;;;;;;;-4.26;100.00;95909.72;5069325;28;20045;-48
2022/01/16 04:38:33;;;;;;;11.00;5.50;;;;;;;-4.27;100.00;95905.53;5073060;28;20044;-49
2022/01/16 04:43:49;;;;;;;12.65;7.38;;;;;;;-4.21;100.00;95897.47;5071988;28;20044;-51
2022/01/16 04:46:26;;;;;;;11.18;5.93;;;;;;;-4.21;100.00;95902.56;5064785;28;20560;-54
2022/01/16 04:48:55;;;;;;;16.45;7.60;;;;;;;-4.11;100.00;95911.09;5063547;28;20403;-51
2022/01/16 04:51:25;;;;;;;16.08;6.45;;;;;;;-4.09;100.00;95906.75;5067760;28;20036;-51
2022/01/16 04:53:52;;;;;;;13.18;7.95;;;;;;;-4.06;100.00;95898.84;5064801;28;20113;-50
2022/01/16 04:56:19;;;;;;;10.50;6.10;;;;;;;-4.03;100.00;95901.19;5063091;28;20044;-50
2022/01/16 04:58:46;;;;;;;12.73;5.85;;;;;;;-4.01;100.00;95892.63;5063150;28;20114;-49
2022/01/16 05:01:15;;;;;;;10.07;5.45;;;;;;;-4.06;100.00;95875.97;5064857;28;20047;-52
2022/01/16 05:03:42;;;;;;;13.70;5.00;;;;;;;-3.99;100.00;95895.88;5061831;28;20087;-49
2022/01/16 05:06:10;;;;;;;9.57;5.00;;;;;;;-3.92;100.00;95892.75;5062668;28;20044;-51
2022/01/16 05:08:37;;;;;;;10.05;5.70;;;;;;;-3.97;100.00;95894.81;5063469;28;20040;-49
2022/01/16 05:11:07;;;;;;;9.95;5.45;;;;;;;-3.98;100.00;95887.28;5063181;28;20044;-49
2022/01/16 05:18:49;;;;;;;11.02;5.93;;;;;;;-3.97;100.00;95873.66;5068519;28;20131;-50
2022/01/16 05:21:17;;;;;;;18.30;6.68;;;;;;;-3.96;100.00;95877.81;5071516;28;20051;-50
2022/01/16 05:23:44;;;;;;;14.20;6.68;;;;;;;-3.94;100.00;95886.16;5066718;28;20063;-52
2022/01/16 05:26:13;;;;;;;12.50;7.72;;;;;;;-3.96;100.00;95871.00;5062744;28;20047;-49
2022/01/16 05:28:40;;;;;;;21.13;7.88;;;;;;;-3.86;100.00;95881.28;5064976;28;20406;-51
2022/01/16 05:31:06;;;;;;;29.40;13.82;;;;;;;-3.90;100.00;95885.00;5065906;28;20041;-51
2022/01/16 05:33:33;;;;;;;25.50;14.10;;;;;;;-3.84;100.00;95889.63;5062805;28;20041;-53
2022/01/16 05:36:00;;;;;;;15.40;9.48;;;;;;;-3.80;100.00;95895.28;5063027;28;20485;-52
2022/01/16 05:38:27;;;;;;;15.57;6.03;;;;;;;-3.82;100.00;95887.75;5063785;28;20529;-50
2022/01/16 05:40:54;;;;;;;14.43;7.63;;;;;;;-3.79;100.00;95892.63;5062690;28;20098;-51
2022/01/16 05:43:21;;;;;;;12.45;6.90;;;;;;;-3.78;100.00;95899.34;5064959;28;20127;-53
2022/01/16 05:45:48;;;;;;;17.85;7.25;;;;;;;-3.74;100.00;95905.81;5066736;28;20032;-50
2022/01/16 05:48:15;;;;;;;17.10;7.68;;;;;;;-3.69;100.00;95916.47;5063983;28;20052;-51
2022/01/16 05:50:42;;;;;;;15.88;7.43;;;;;;;-3.68;100.00;95915.53;5062205;28;20417;-51
2022/01/16 05:53:09;;;;;;;12.90;8.70;;;;;;;-3.69;100.00;95918.19;5062713;28;20040;-49
2022/01/16 05:55:38;;;;;;;14.20;7.50;;;;;;;-3.78;100.00;95919.72;5061629;28;20036;-52
2022/01/16 05:58:06;;;;;;;12.32;5.97;;;;;;;-3.72;100.00;95921.78;5062732;28;20051;-51
2022/01/16 06:00:35;;;;;;;15.93;8.05;;;;;;;-3.67;100.00;95927.34;5065285;28;20047;-48
2022/01/16 06:03:02;;;;;;;13.68;7.03;;;;;;;-3.66;100.00;95918.78;5062947;28;20064;-50
2022/01/16 06:05:29;;;;;;;13.55;7.38;;;;;;;-3.70;100.00;95902.09;5066110;28;20044;-49
2022/01/16 06:07:59;;;;;;;19.58;6.43;;;;;;;-3.65;100.00;95919.59;5065587;28;20048;-51
2022/01/16 06:10:27;;;;;;;11.32;6.90;;;;;;;-3.68;100.00;95915.53;5062486;28;20049;-50
2022/01/16 06:12:54;;;;;;;13.63;7.45;;;;;;;-3.66;100.00;95917.97;5062259;28;20502;-48
2022/01/16 06:15:22;;;;;;;20.92;7.35;;;;;;;-3.68;100.00;95910.44;5068662;28;20041;-50
2022/01/16 06:17:50;;;;;;;15.35;8.32;;;;;;;-3.61;100.00;95920.19;5062132;28;20422;-49
2022/01/16 06:20:17;;;;;;;22.75;8.93;;;;;;;-3.55;100.00;95919.69;5063002;28;20048;-50
2022/01/16 06:22:45;;;;;;;15.68;8.65;;;;;;;-3.53;100.00;95917.84;5063212;28;20044;-51
2022/01/16 06:25:13;;;;;;;16.17;7.38;;;;;;;-3.42;100.00;95907.66;5062638;28;20032;-51
2022/01/16 06:27:40;;;;;;;20.67;8.80;;;;;;;-3.36;100.00;95914.03;5063649;28;20037;-50
2022/01/16 06:30:10;;;;;;;20.20;9.80;;;;;;;-3.30;100.00;95924.53;5063001;28;20033;-51
2022/01/16 06:32:37;;;;;;;15.30;8.48;;;;;;;-3.23;100.00;95931.72;5061522;28;20120;-50
2022/01/16 06:35:05;;;;;;;20.20;10.52;;;;;;;-3.14;100.00;95938.66;5062987;28;20046;-49
2022/01/16 06:37:32;;;;;;;16.92;8.25;;;;;;;-3.09;100.00;95939.09;5065142;28;20052;-51
2022/01/16 06:39:59;;;;;;;14.77;7.82;;;;;;;-3.04;100.00;95944.66;5062304;28;20056;-50
2022/01/16 06:42:26;;;;;;;14.23;8.82;;;;;;;-2.97;100.00;95950.91;5062247;28;20126;-54
2022/01/16 06:44:53;;;;;;;20.65;8.60;;;;;;;-2.85;100.00;95954.22;5062313;28;20513;-49
2022/01/16 06:47:20;;;;;;;18.52;7.13;;;;;;;-2.78;100.00;95949.44;5062292;28;20045;-49
2022/01/16 06:49:46;;;;;;;14.90;7.95;;;;;;;-2.72;100.00;95947.22;5068577;28;20062;-49
2022/01/16 06:52:13;;;;;;;15.85;8.13;;;;;;;-2.69;100.00;95943.63;5068541;28;20040;-49
2022/01/16 06:54:40;;;;;;;16.13;8.65;;;;;;;-2.70;100.00;95947.13;5063272;28;20047;-49
2022/01/16 06:57:08;;;;;;;20.50;9.00;;;;;;;-2.66;100.00;95938.28;5067866;28;20406;-49
2022/01/16 06:59:38;;;;;;;20.77;9.48;;;;;;;-2.50;100.00;95953.19;5061200;28;20528;-49
2022/01/16 07:02:06;;;;;;;21.02;9.35;;;;;;;-2.40;100.00;95953.25;5063425;28;20441;-50
2022/01/16 07:04:33;;;;;;;14.80;8.27;;;;;;;-2.32;100.00;95961.09;5060142;28;20044;-52
2022/01/16 07:07:01;;;;;;;19.38;8.98;;;;;;;-2.22;100.00;95966.28;5061665;28;20040;-50
2022/01/16 07:09:28;;;;;;;30.95;10.85;;;;;;;-2.18;100.00;95963.34;5065356;28;20598;-50
2022/01/16 07:11:54;;;;;;;30.45;12.73;;;;;;;-2.05;100.00;95972.56;5067452;28;20067;-51
2022/01/16 07:14:21;;;;;;;29.88;14.63;;;;;;;-2.06;100.00;95961.53;5061498;28;20067;-53
2022/01/16 07:16:48;;;;;;;17.50;8.00;;;;;;;-2.00;100.00;95978.09;5064962;28;20051;-52
2022/01/16 07:19:15;;;;;;;11.63;7.70;;;;;;;-1.97;100.00;95980.41;5065717;28;20055;-48
2022/01/16 07:21:42;;;;;;;26.08;13.50;;;;;;;-1.93;100.00;95974.09;5066714;28;20425;-51
2022/01/16 07:24:15;;;;;;;24.10;10.82;;;;;;;-1.84;100.00;95978.47;5061809;28;20067;-51
2022/01/16 07:26:45;;;;;;;20.58;9.15;;;;;;;-1.74;100.00;95969.13;5064999;28;20111;-49
2022/01/16 07:29:12;;;;;;;21.90;11.02;;;;;;;-1.64;100.00;95971.75;5066633;28;20048;-50
2022/01/16 07:31:39;;;;;;;27.63;12.30;;;;;;;-1.52;100.00;95969.91;5070498;28;20048;-47
2022/01/16 07:34:07;;;;;;;26.50;13.30;;;;;;;-1.35;100.00;95982.09;5064063;28;20052;-52
2022/01/16 07:36:34;;;;;;;21.20;10.95;;;;;;;-1.19;100.00;95980.78;5064358;28;20043;-51
2022/01/16 07:39:02;;;;;;;32.08;15.73;;;;;;;-1.09;100.00;95979.06;5065427;28;20040;-48
2022/01/16 07:41:28;;;;;;;19.30;9.25;;;;;;;-1.04;100.00;95971.81;5061627;28;20049;-49
2022/01/16 07:43:55;;;;;;;15.25;8.30;;;;;;;-0.94;100.00;95976.16;5059989;28;20060;-48
2022/01/16 07:46:22;;;;;;;15.35;8.30;;;;;;;-0.89;99.80;95976.56;5059081;28;20062;-47
2022/01/16 07:48:49;;;;;;;25.40;11.13;;;;;;;-0.74;98.95;95985.47;5065978;28;20059;-51
2022/01/16 07:51:16;;;;;;;14.20;7.95;;;;;;;-0.68;97.84;95982.38;5065724;28;20044;-50
2022/01/16 07:53:43;;;;;;;16.40;9.07;;;;;;;-0.61;95.71;95986.03;5066136;28;20040;-50
2022/01/16 07:56:10;;;;;;;38.15;20.48;;;;;;;-0.57;95.46;95996.81;5058001;28;20044;-51
2022/01/16 07:58:37;;;;;;;37.17;18.67;;;;;;;-0.63;94.53;96002.44;5063006;28;20044;-48
2022/01/16 08:01:04;;;;;;;20.55;9.77;;;;;;;-0.67;94.74;96011.34;5066045;28;20047;-50
2022/01/16 08:03:32;;;;;;;18.05;9.10;;;;;;;-0.68;95.40;96009.72;5064504;28;20517;-48
2022/01/16 08:05:59;;;;;;;18.98;9.77;;;;;;;-0.64;94.98;96006.75;5063070;28;20040;-50
2022/01/16 08:08:26;;;;;;;20.70;10.85;;;;;;;-0.64;95.38;96005.97;5065403;28;20067;-54
2022/01/16 08:10:52;;;;;;;17.83;9.27;;;;;;;-0.57;95.57;96001.13;5064453;28;20047;-49
2022/01/16 08:13:19;;;;;;;13.40;7.65;;;;;;;-0.56;95.78;95987.38;5064991;28;20557;-52
2022/01/16 08:15:46;;;;;;;11.90;6.93;;;;;;;-0.51;94.41;95975.00;5073007;28;20040;-51
2022/01/16 08:18:16;;;;;;;16.65;7.38;;;;;;;-0.44;95.00;95996.56;5064770;28;20051;-49
2022/01/16 08:20:43;;;;;;;14.52;5.57;;;;;;;-0.37;94.54;96002.75;5064550;28;20498;-48
2022/01/16 08:23:10;;;;;;;12.43;6.43;;;;;;;-0.51;92.87;96000.59;5065150;28;20047;-51
2022/01/16 08:25:37;;;;;;;18.48;9.40;;;;;;;-0.55;94.72;96009.47;5063741;28;20155;-51
2022/01/16 08:28:04;;;;;;;16.80;9.27;;;;;;;-0.43;94.47;96003.31;5063586;28;20045;-53
2022/01/16 08:30:31;;;;;;;15.32;9.05;;;;;;;-0.39;93.13;95994.41;5062676;28;20055;-49
2022/01/16 08:32:58;;;;;;;9.35;4.80;;;;;;;-0.36;92.34;96004.38;5063062;28;20055;-48
2022/01/16 08:35:25;;;;;;;14.27;7.50;;;;;;;-0.36;92.64;96003.56;5061771;28;20049;-50
2022/01/16 08:37:52;;;;;;;15.70;7.55;;;;;;;-0.34;93.73;95997.38;5064165;28;20425;-52
2022/01/16 08:40:20;;;;;;;17.27;7.93;;;;;;;-0.35;94.20;95995.75;5062400;28;20052;-53
2022/01/16 08:42:47;;;;;;;8.38;3.15;;;;;;;-0.35;92.54;95980.38;5063967;28;20048;-48
2022/01/16 08:45:14;;;;;;;17.08;7.90;;;;;;;-0.28;92.02;95981.47;5059242;28;20041;-47
2022/01/16 08:47:40;;;;;;;15.35;8.25;;;;;;;-0.13;93.02;95983.63;5058714;28;20049;-48
2022/01/16 08:50:09;;;;;;;15.60;6.25;;;;;;;-0.14;92.52;95994.81;5059969;28;20094;-50
2022/01/16 08:52:38;;;;;;;12.38;5.88;;;;;;;-0.11;91.80;95982.56;5068251;28;20063;-47
2022/01/16 08:55:08;;;;;;;18.40;8.70;;;;;;;-0.09;90.92;95979.81;5066299;28;20097;-48
2022/01/16 08:57:36;;;;;;;7.30;3.70;;;;;;;-0.11;89.85;95986.84;5068516;28;20048;-52
2022/01/16 09:00:05;;;;;;;3.30;1.75;;;;;;;-0.15;89.36;95980.38;5068438;28;20436;-48
2022/01/16 09:02:32;;;;;;;11.98;5.28;;;;;;;-0.11;90.23;95977.44;5060762;28;20046;-51
2022/01/16 09:04:59;;;;;;;6.40;4.35;;;;;;;-0.07;90.39;95978.75;5056957;28;20068;-51
2022/01/16 09:07:26;;;;;;;14.88;7.30;;;;;;;-0.13;90.70;95974.16;5058452;28;20049;-52
2022/01/16 09:09:52;;;;;;;18.08;8.10;;;;;;;0.04;90.07;95970.13;5056652;28;20658;-49
2022/01/16 09:12:19;;;;;;;15.10;7.35;;;;;;;0.23;90.19;95968.47;5073244;28;20134;-48
2022/01/16 09:14:46;;;;;;;14.23;7.10;;;;;;;0.23;89.57;95976.16;5061625;28;20761;-49
2022/01/16 09:17:13;;;;;;;12.05;6.68;;;;;;;0.23;88.42;95963.34;5060845;28;20059;-51
2022/01/16 09:19:42;;;;;;;12.40;6.50;;;;;;;0.29;87.92;95962.78;5056988;28;20044;-52
2022/01/16 09:22:09;;;;;;;13.15;6.88;;;;;;;0.29;88.41;95962.78;5057086;28;20063;-51
2022/01/16 09:24:35;;;;;;;11.15;5.68;;;;;;;0.29;88.29;95962.78;5058236;28;20045;-50
2022/01/16 09:27:03;;;;;;;11.43;6.13;;;;;;;0.30;88.43;95954.16;5056930;28;20506;-52
2022/01/16 09:29:29;;;;;;;18.23;8.02;;;;;;;0.37;88.13;95950.09;5061585;28;20529;-52
2022/01/16 09:31:57;;;;;;;14.70;7.60;;;;;;;0.38;88.22;95942.25;5061945;28;20060;-48
2022/01/16 09:34:24;;;;;;;12.70;7.25;;;;;;;0.53;88.04;95949.50;5064980;28;20724;-51
2022/01/16 09:36:50;;;;;;;13.55;7.13;;;;;;;0.63;88.27;95950.28;5061128;28;20046;-53
2022/01/16 09:39:17;;;;;;;6.38;4.15;;;;;;;0.66;85.73;95949.16;5063297;28;20052;-49
2022/01/16 09:41:45;;;;;;;12.27;6.00;;;;;;;0.67;85.43;95940.53;5064125;28;20054;-51
2022/01/16 09:44:12;;;;;;;12.45;6.10;;;;;;;0.62;85.92;95937.59;5063723;28;20044;-49
2022/01/16 09:46:38;;;;;;;15.02;6.55;;;;;;;0.61;85.38;95938.53;5062329;28;20487;-50
2022/01/16 09:49:05;;;;;;;9.75;6.32;;;;;;;0.63;85.62;95928.94;5065778;28;20407;-51
2022/01/16 09:51:32;;;;;;;9.18;4.90;;;;;;;0.57;85.60;95925.97;5068990;28;20041;-50
2022/01/16 09:53:59;;;;;;;12.50;6.43;;;;;;;0.70;84.90;95919.72;5069504;28;20044;-49
2022/01/16 09:56:26;;;;;;;10.55;5.28;;;;;;;0.86;84.38;95927.59;5060502;28;20059;-48
2022/01/16 09:58:53;;;;;;;11.18;5.57;;;;;;;0.90;82.27;95918.69;5061942;28;20430;-49
2022/01/16 10:01:20;;;;;;;25.83;7.40;;;;;;;1.05;82.63;95923.31;5063381;28;20044;-51
2022/01/16 10:03:48;;;;;;;10.70;4.95;;;;;;;1.03;82.25;95914.97;5066702;28;20060;-47
2022/01/16 10:06:20;;;;;;;9.48;5.50;;;;;;;1.05;82.01;95907.94;5062864;28;20052;-49
2022/01/16 10:08:49;;;;;;;12.15;5.82;;;;;;;1.19;82.35;95904.88;5062450;28;20083;-48
2022/01/16 10:11:40;;;;;;;12.20;7.32;;;;;;;1.40;81.94;95906.31;5059274;28;20055;-48
2022/01/16 10:14:28;;;;;;;20.95;6.25;;;;;;;1.53;80.02;95901.59;5063653;28;20044;-47
2022/01/16 10:16:55;;;;;;;13.43;6.60;;;;;;;1.44;80.67;95869.13;5063195;28;20033;-50
2022/01/16 10:19:27;;;;;;;9.20;5.53;;;;;;;1.81;78.73;95898.94;5068940;28;20445;-53
2022/01/16 10:22:02;;;;;;;8.90;5.05;;;;;;;1.66;78.66;95896.91;5062836;28;20403;-50
2022/01/16 10:24:34;;;;;;;17.25;7.32;;;;;;;1.62;78.88;95894.78;5060974;28;20059;-48
2022/01/16 10:27:19;;;;;;;16.48;7.72;;;;;;;1.84;78.99;95893.53;5061739;28;20045;-48
2022/01/16 10:29:53;;;;;;;7.30;3.17;;;;;;;1.80;77.46;95889.63;5064632;28;20044;-52
2022/01/16 10:32:24;;;;;;;11.25;5.72;;;;;;;1.76;78.33;95885.75;5067899;28;20071;-49
2022/01/16 10:34:54;;;;;;;15.30;5.93;;;;;;;1.82;78.64;95885.13;5066247;28;20047;-49
2022/01/16 10:37:30;;;;;;;23.02;10.38;;;;;;;1.91;78.20;95879.13;5061524;28;20037;-51
2022/01/16 10:40:03;;;;;;;8.02;4.75;;;;;;;2.08;76.96;95869.72;5060345;28;20616;-50
2022/01/16 10:42:32;;;;;;;11.60;6.38;;;;;;;2.25;76.27;95880.88;5068894;28;20056;-49
2022/01/16 10:45:20;;;;;;;24.00;8.30;;;;;;;2.18;75.68;95875.56;5066845;28;20051;-48
2022/01/16 10:47:54;;;;;;;16.75;8.15;;;;;;;2.34;75.09;95869.72;5063415;28;20033;-49
2022/01/16 10:50:23;;;;;;;13.70;6.40;;;;;;;2.51;74.10;95867.22;5067730;28;20819;-48
2022/01/16 10:52:51;;;;;;;16.23;7.95;;;;;;;2.57;73.27;95869.16;5066875;28;20048;-50
2022/01/16 10:55:22;;;;;;;15.57;6.72;;;;;;;2.58;73.31;95863.06;5069997;28;20048;-49
2022/01/16 10:57:50;;;;;;;9.68;5.10;;;;;;;2.59;72.22;95859.50;5064599;28;20159;-50
2022/01/16 11:00:22;;;;;;;13.45;5.40;;;;;;;2.74;71.73;95863.09;5068863;28;20075;-51
2022/01/16 11:02:51;;;;;;;11.82;6.28;;;;;;;3.01;70.43;95845.78;5066645;28;20445;-49
2022/01/16 11:05:19;;;;;;;10.38;4.93;;;;;;;2.85;70.83;95852.50;5061904;28;20144;-47
2022/01/16 11:07:54;;;;;;;21.85;9.35;;;;;;;2.80;72.13;95854.75;5070060;28;20040;-50
2022/01/16 11:10:33;;;;;;;9.27;5.28;;;;;;;2.90;71.47;95848.66;5068100;28;20186;-47
2022/01/16 11:13:04;;;;;;;11.82;5.78;;;;;;;2.96;72.54;95848.84;5065039;28;20532;-49
2022/01/16 11:15:32;;;;;;;11.10;6.30;;;;;;;3.13;71.95;95854.78;5064017;28;20041;-48
2022/01/16 11:18:00;;;;;;;13.27;5.78;;;;;;;3.34;69.93;95850.97;5055884;28;20650;-52
2022/01/16 11:20:38;;;;;;;11.45;6.15;;;;;;;3.52;69.47;95849.03;5064383;28;20429;-48
2022/01/16 11:25:42;;;;;;;12.00;6.95;;;;;;;3.78;68.34;95838.56;5062463;28;20525;-50
2022/01/16 11:28:11;;;;;;;14.43;6.60;;;;;;;3.57;67.10;95836.47;5057310;28;20047;-50
2022/01/16 11:30:42;;;;;;;12.50;6.50;;;;;;;3.87;67.01;95834.19;5061929;28;20044;-48
2022/01/16 11:33:10;;;;;;;10.88;5.97;;;;;;;4.08;65.83;95832.84;5060776;28;20045;-49
2022/01/16 11:35:48;;;;;;;11.27;6.53;;;;;;;4.28;65.95;95831.47;5057107;28;20033;-47
2022/01/16 11:38:19;;;;;;;9.20;5.40;;;;;;;4.33;64.65;95821.47;5057323;28;20053;-48
2022/01/16 11:40:48;;;;;;;14.30;5.18;;;;;;;4.25;64.18;95818.13;5058995;28;20153;-52
2022/01/16 11:43:19;;;;;;;10.30;5.60;;;;;;;4.52;63.81;95809.13;5057342;28;20040;-49
2022/01/16 11:45:46;;;;;;;13.55;6.90;;;;;;;4.84;62.83;95808.16;5052828;28;20161;-49
2022/01/16 11:48:16;;;;;;;11.02;6.32;;;;;;;4.85;61.38;95806.41;5050796;28;20052;-48
2022/01/16 11:50:44;;;;;;;11.20;5.90;;;;;;;4.74;61.14;95808.38;5056849;28;20045;-47
2022/01/16 11:53:11;;;;;;;11.18;5.95;;;;;;;4.88;60.67;95808.63;5054489;28;20515;-51
2022/01/16 11:55:38;;;;;;;9.48;4.53;;;;;;;4.63;60.53;95806.19;5052614;28;20529;-51
2022/01/16 11:58:06;;;;;;;16.05;6.13;;;;;;;4.93;60.51;95802.00;5054854;28;20044;-49
2022/01/16 12:00:44;;;;;;;13.63;7.00;;;;;;;4.83;60.23;95803.97;5060339;28;20051;-49
2022/01/16 12:03:37;;;;;;;11.55;6.22;;;;;;;4.82;59.61;95799.00;5061299;28;20109;-51
2022/01/16 12:06:31;;;;;;;9.68;5.88;;;;;;;5.03;58.88;95796.59;5053722;28;20049;-50
2022/01/16 12:09:00;;;;;;;9.45;5.07;;;;;;;5.12;58.63;95795.56;5057193;28;20049;-48
2022/01/16 12:11:39;;;;;;;10.20;5.20;;;;;;;5.45;57.46;95790.13;5063660;28;20537;-50
2022/01/16 12:14:06;;;;;;;11.95;6.55;;;;;;;5.62;56.54;95789.97;5058991;28;20139;-50